首页
METAR-TAF:

METAR-TAF

机场 :

Cranbrook, 不列颠哥伦比亚, 加拿大

纬度: 49-37N, 经度: 115-47W, 海拔: 939米

当前天气观测

该预报发布于1小时和24分钟前的13:00 UTC
风速5节,风向西,在西南西转西北之间变化
温度 1°C
湿度 69%
气压 1024 hPa
能見度: 40.2公里
天空无云

METAR: CYXC 151300Z 27005KT 220V300 25SM SKC 01/M04 A3024 RMK SLP256

时间: 08:24 (14:24 UTC)

预报

该预报发布于1小时和46分钟前的12:38 UTC
预报有效从15日的 13点(UTC)到 16日的 01点(UTC)
风速6节,风向西
能見度: 10公里
天空无云
从 15日的 1600点(UTC)
风速3节,风向多变
能見度: 10公里
天空无云

TAF: CYXC 151238Z 1513/1601 26006KT P6SM SKC FM151600 VRB03KT P6SM SKC RMK NXT FCST BY 151900Z

超过4000个机场的气象观测和天气预报(METAR&TAF报告)。

可查询的气象台以黄色和红色小点在地图上表示。

将鼠标移到小点上方,可查看气象台名称。

然后点击查看天气观测和预报。

如需切换地图:点击带黑十字的绿色按钮放大地图;点击带横线的绿色按钮缩小地图;或者点击绿色箭头查看邻近地区的地图。


METAR-TAF: